sensor_id;sensor_type;location;lat;lon;timestamp;temperature;humidity
9885;DHT22;4981;50.966;4.842;2023-11-18T18:03:30;10.40;1.00
9885;DHT22;4981;50.966;4.842;2023-11-18T18:05:57;10.50;1.00
9885;DHT22;4981;50.966;4.842;2023-11-18T18:08:24;10.50;1.00
9885;DHT22;4981;50.966;4.842;2023-11-18T18:10:51;10.60;1.00
9885;DHT22;4981;50.966;4.842;2023-11-18T18:13:18;10.50;1.00
9885;DHT22;4981;50.966;4.842;2023-11-18T18:15:46;10.50;1.00
9885;DHT22;4981;50.966;4.842;2023-11-18T18:18:13;10.50;1.00
9885;DHT22;4981;50.966;4.842;2023-11-18T18:20:42;10.50;1.00
9885;DHT22;4981;50.966;4.842;2023-11-18T18:23:13;10.60;1.00
9885;DHT22;4981;50.966;4.842;2023-11-18T18:25:44;10.60;1.00
9885;DHT22;4981;50.966;4.842;2023-11-18T18:28:11;10.60;1.00
9885;DHT22;4981;50.966;4.842;2023-11-18T18:30:38;10.60;1.00
9885;DHT22;4981;50.966;4.842;2023-11-18T18:33:05;10.60;1.00
9885;DHT22;4981;50.966;4.842;2023-11-18T18:35:34;10.70;1.00
9885;DHT22;4981;50.966;4.842;2023-11-18T18:38:05;10.70;1.00
9885;DHT22;4981;50.966;4.842;2023-11-18T18:40:32;10.70;1.00
9885;DHT22;4981;50.966;4.842;2023-11-18T18:42:59;10.70;1.00
9885;DHT22;4981;50.966;4.842;2023-11-18T18:45:26;10.80;1.00
9885;DHT22;4981;50.966;4.842;2023-11-18T18:47:53;10.90;1.00
9885;DHT22;4981;50.966;4.842;2023-11-18T18:50:21;10.90;1.00
9885;DHT22;4981;50.966;4.842;2023-11-18T18:52:48;10.90;1.00
9885;DHT22;4981;50.966;4.842;2023-11-18T18:55:16;10.90;1.00
9885;DHT22;4981;50.966;4.842;2023-11-18T18:57:44;11.00;1.00
9885;DHT22;4981;50.966;4.842;2023-11-18T19:00:12;11.00;1.00
9885;DHT22;4981;50.966;4.842;2023-11-18T19:02:39;11.10;1.00
9885;DHT22;4981;50.966;4.842;2023-11-18T19:05:08;11.10;1.00
9885;DHT22;4981;50.966;4.842;2023-11-18T19:07:35;11.10;1.00
9885;DHT22;4981;50.966;4.842;2023-11-18T19:10:02;11.10;1.00
9885;DHT22;4981;50.966;4.842;2023-11-18T19:12:30;11.10;1.00
9885;DHT22;4981;50.966;4.842;2023-11-18T19:14:58;11.10;1.00
9885;DHT22;4981;50.966;4.842;2023-11-18T19:17:29;11.20;1.00
9885;DHT22;4981;50.966;4.842;2023-11-18T19:19:57;11.20;1.00
9885;DHT22;4981;50.966;4.842;2023-11-18T19:22:23;11.40;1.00
9885;DHT22;4981;50.966;4.842;2023-11-18T19:24:54;11.20;1.00
9885;DHT22;4981;50.966;4.842;2023-11-18T19:27:21;11.40;1.00
9885;DHT22;4981;50.966;4.842;2023-11-18T19:29:50;11.30;1.00
9885;DHT22;4981;50.966;4.842;2023-11-18T19:32:17;11.30;1.00
9885;DHT22;4981;50.966;4.842;2023-11-18T19:34:44;11.30;1.00
9885;DHT22;4981;50.966;4.842;2023-11-18T19:37:11;11.40;1.00
9885;DHT22;4981;50.966;4.842;2023-11-18T19:39:38;11.40;1.00
9885;DHT22;4981;50.966;4.842;2023-11-18T19:42:05;11.80;1.00
9885;DHT22;4981;50.966;4.842;2023-11-18T19:44:33;11.50;1.00
9885;DHT22;4981;50.966;4.842;2023-11-18T19:47:01;11.60;1.00
9885;DHT22;4981;50.966;4.842;2023-11-18T19:49:29;11.50;1.00
9885;DHT22;4981;50.966;4.842;2023-11-18T19:51:58;11.40;1.00
9885;DHT22;4981;50.966;4.842;2023-11-18T19:54:25;11.50;1.00
9885;DHT22;4981;50.966;4.842;2023-11-18T19:56:52;11.60;1.00
9885;DHT22;4981;50.966;4.842;2023-11-18T19:59:19;11.60;1.00
9885;DHT22;4981;50.966;4.842;2023-11-18T20:01:48;11.60;1.00
9885;DHT22;4981;50.966;4.842;2023-11-18T20:04:21;11.50;1.00
9885;DHT22;4981;50.966;4.842;2023-11-18T20:06:48;11.60;1.00
9885;DHT22;4981;50.966;4.842;2023-11-18T20:09:15;11.60;1.00
9885;DHT22;4981;50.966;4.842;2023-11-18T20:11:47;11.60;1.00
9885;DHT22;4981;50.966;4.842;2023-11-18T20:14:15;11.70;1.00
9885;DHT22;4981;50.966;4.842;2023-11-18T20:16:42;11.70;1.00
9885;DHT22;4981;50.966;4.842;2023-11-18T20:19:09;11.70;1.00
9885;DHT22;4981;50.966;4.842;2023-11-18T20:21:37;11.60;1.00
9885;DHT22;4981;50.966;4.842;2023-11-18T20:24:05;11.80;1.00
9885;DHT22;4981;50.966;4.842;2023-11-18T20:26:34;11.80;1.00
9885;DHT22;4981;50.966;4.842;2023-11-18T20:29:01;11.90;1.00
9885;DHT22;4981;50.966;4.842;2023-11-18T20:31:29;11.90;1.00
9885;DHT22;4981;50.966;4.842;2023-11-18T20:33:56;11.90;1.00
9885;DHT22;4981;50.966;4.842;2023-11-18T20:36:25;11.90;1.00
9885;DHT22;4981;50.966;4.842;2023-11-18T20:38:53;11.90;1.00
9885;DHT22;4981;50.966;4.842;2023-11-18T20:41:20;11.80;1.00
9885;DHT22;4981;50.966;4.842;2023-11-18T20:43:47;11.90;1.00
9885;DHT22;4981;50.966;4.842;2023-11-18T20:46:14;11.90;1.00
9885;DHT22;4981;50.966;4.842;2023-11-18T20:48:42;11.20;1.00
9885;DHT22;4981;50.966;4.842;2023-11-18T20:51:09;11.90;1.00
9885;DHT22;4981;50.966;4.842;2023-11-18T20:53:37;11.90;1.00
9885;DHT22;4981;50.966;4.842;2023-11-18T20:56:06;12.00;1.00
9885;DHT22;4981;50.966;4.842;2023-11-18T20:58:33;12.00;1.00
9885;DHT22;4981;50.966;4.842;2023-11-18T21:01:00;12.10;1.00
9885;DHT22;4981;50.966;4.842;2023-11-18T21:03:27;12.10;1.00
9885;DHT22;4981;50.966;4.842;2023-11-18T21:05:54;12.10;1.00
9885;DHT22;4981;50.966;4.842;2023-11-18T21:08:22;12.20;1.00
9885;DHT22;4981;50.966;4.842;2023-11-18T21:10:49;12.10;1.00
9885;DHT22;4981;50.966;4.842;2023-11-18T21:13:18;12.10;1.00
9885;DHT22;4981;50.966;4.842;2023-11-18T21:15:45;12.20;1.00
9885;DHT22;4981;50.966;4.842;2023-11-18T21:18:12;12.20;1.00
9885;DHT22;4981;50.966;4.842;2023-11-18T21:20:38;12.30;1.00
9885;DHT22;4981;50.966;4.842;2023-11-18T21:23:05;12.30;1.00
9885;DHT22;4981;50.966;4.842;2023-11-18T21:25:33;12.60;1.00
9885;DHT22;4981;50.966;4.842;2023-11-18T21:28:00;12.30;1.00
9885;DHT22;4981;50.966;4.842;2023-11-18T21:30:31;12.40;1.00
9885;DHT22;4981;50.966;4.842;2023-11-18T21:32:58;12.30;1.00
9885;DHT22;4981;50.966;4.842;2023-11-18T21:35:27;12.40;1.00
9885;DHT22;4981;50.966;4.842;2023-11-18T21:37:54;12.30;1.00
9885;DHT22;4981;50.966;4.842;2023-11-18T21:40:21;12.30;1.00
9885;DHT22;4981;50.966;4.842;2023-11-18T21:42:50;12.30;1.00
9885;DHT22;4981;50.966;4.842;2023-11-18T21:45:19;12.40;1.00
9885;DHT22;4981;50.966;4.842;2023-11-18T21:47:50;12.40;1.00
9885;DHT22;4981;50.966;4.842;2023-11-18T21:50:20;12.50;1.00
9885;DHT22;4981;50.966;4.842;2023-11-18T21:52:47;12.50;1.00
9885;DHT22;4981;50.966;4.842;2023-11-18T21:55:14;12.50;1.00
9885;DHT22;4981;50.966;4.842;2023-11-18T21:57:42;12.50;1.00
9885;DHT22;4981;50.966;4.842;2023-11-18T22:00:10;12.50;1.00
9885;DHT22;4981;50.966;4.842;2023-11-18T22:02:38;12.50;1.00
9885;DHT22;4981;50.966;4.842;2023-11-18T22:05:08;12.50;1.00
9885;DHT22;4981;50.966;4.842;2023-11-18T22:07:36;12.60;1.00
9885;DHT22;4981;50.966;4.842;2023-11-18T22:10:04;12.70;1.00
9885;DHT22;4981;50.966;4.842;2023-11-18T22:12:31;12.60;1.00
9885;DHT22;4981;50.966;4.842;2023-11-18T22:14:58;12.70;1.00
9885;DHT22;4981;50.966;4.842;2023-11-18T22:17:25;12.70;1.00
9885;DHT22;4981;50.966;4.842;2023-11-18T22:19:52;12.70;1.00
9885;DHT22;4981;50.966;4.842;2023-11-18T22:22:20;12.70;1.00
9885;DHT22;4981;50.966;4.842;2023-11-18T22:24:47;12.70;1.00
9885;DHT22;4981;50.966;4.842;2023-11-18T22:27:14;12.60;1.00
9885;DHT22;4981;50.966;4.842;2023-11-18T22:29:41;12.70;1.00
9885;DHT22;4981;50.966;4.842;2023-11-18T22:32:08;12.70;1.00
9885;DHT22;4981;50.966;4.842;2023-11-18T22:34:36;12.70;1.00
9885;DHT22;4981;50.966;4.842;2023-11-18T22:37:04;12.70;1.00
9885;DHT22;4981;50.966;4.842;2023-11-18T22:39:33;12.60;1.00
9885;DHT22;4981;50.966;4.842;2023-11-18T22:42:01;12.60;1.00
9885;DHT22;4981;50.966;4.842;2023-11-18T22:44:30;12.70;1.00
9885;DHT22;4981;50.966;4.842;2023-11-18T22:46:57;12.60;1.00
9885;DHT22;4981;50.966;4.842;2023-11-18T22:49:27;12.60;1.00
9885;DHT22;4981;50.966;4.842;2023-11-18T22:51:54;12.60;1.00
9885;DHT22;4981;50.966;4.842;2023-11-18T22:54:21;12.60;1.00
9885;DHT22;4981;50.966;4.842;2023-11-18T22:56:50;12.60;1.00
9885;DHT22;4981;50.966;4.842;2023-11-18T22:59:17;12.70;1.00
9885;DHT22;4981;50.966;4.842;2023-11-18T23:01:45;12.70;1.00
9885;DHT22;4981;50.966;4.842;2023-11-18T23:04:12;12.60;1.00
9885;DHT22;4981;50.966;4.842;2023-11-18T23:06:39;12.60;1.00
9885;DHT22;4981;50.966;4.842;2023-11-18T23:09:07;12.60;1.00
9885;DHT22;4981;50.966;4.842;2023-11-18T23:11:38;12.60;1.00
9885;DHT22;4981;50.966;4.842;2023-11-18T23:14:06;12.60;1.00
9885;DHT22;4981;50.966;4.842;2023-11-18T23:16:34;12.60;1.00
9885;DHT22;4981;50.966;4.842;2023-11-18T23:19:01;12.60;1.00
9885;DHT22;4981;50.966;4.842;2023-11-18T23:21:28;12.60;1.00
9885;DHT22;4981;50.966;4.842;2023-11-18T23:23:55;12.60;1.00
9885;DHT22;4981;50.966;4.842;2023-11-18T23:26:23;12.60;1.00
9885;DHT22;4981;50.966;4.842;2023-11-18T23:28:50;12.70;1.00
9885;DHT22;4981;50.966;4.842;2023-11-18T23:31:20;12.70;1.00
9885;DHT22;4981;50.966;4.842;2023-11-18T23:33:50;12.70;1.00
9885;DHT22;4981;50.966;4.842;2023-11-18T23:36:17;12.80;1.00
9885;DHT22;4981;50.966;4.842;2023-11-18T23:38:44;12.80;1.00
9885;DHT22;4981;50.966;4.842;2023-11-18T23:41:12;12.80;1.00
9885;DHT22;4981;50.966;4.842;2023-11-18T23:43:39;12.80;1.00
9885;DHT22;4981;50.966;4.842;2023-11-18T23:46:06;12.80;1.00
9885;DHT22;4981;50.966;4.842;2023-11-18T23:48:35;12.80;1.00
9885;DHT22;4981;50.966;4.842;2023-11-18T23:51:03;12.90;1.00
9885;DHT22;4981;50.966;4.842;2023-11-18T23:53:30;13.00;1.00
9885;DHT22;4981;50.966;4.842;2023-11-18T23:55:58;13.00;1.00
9885;DHT22;4981;50.966;4.842;2023-11-18T23:58:25;12.90;1.00
